createdAt,value
2017-10-18T06:32:36.545Z,1009.65
2017-10-18T06:33:45.862Z,1009.67
2017-10-18T06:34:55.194Z,1009.71
2017-10-18T06:36:04.542Z,1009.68
2017-10-18T06:37:13.898Z,1009.66
2017-10-18T06:38:23.217Z,1009.72
2017-10-18T06:39:31.912Z,1009.69
2017-10-18T06:40:41.259Z,1009.73
2017-10-18T06:41:50.579Z,1009.71
2017-10-18T06:42:59.583Z,1009.71
2017-10-18T06:44:08.900Z,1009.73
2017-10-18T06:45:17.893Z,1009.71
2017-10-18T06:46:26.913Z,1009.72
2017-10-18T06:47:36.237Z,1009.75
2017-10-18T06:48:45.228Z,1009.74
2017-10-18T06:49:54.314Z,1009.75
2017-10-18T06:51:03.317Z,1009.74
2017-10-18T06:52:11.996Z,1009.77
2017-10-18T06:53:21.320Z,1009.76
2017-10-18T06:54:30.312Z,1009.77
2017-10-18T06:55:39.954Z,1009.79
2017-10-18T06:56:49.271Z,1009.74
2017-10-18T06:57:58.253Z,1009.74
2017-10-18T06:59:07.236Z,1009.78
2017-10-18T07:00:15.907Z,1009.8
2017-10-18T07:01:25.542Z,1009.73
2017-10-18T07:02:35.532Z,1009.73
2017-10-18T07:03:44.243Z,1009.7
2017-10-18T07:04:53.220Z,1009.69
2017-10-18T07:06:01.896Z,1009.72
2017-10-18T07:07:10.568Z,1009.72
2017-10-18T07:08:20.233Z,1009.72
2017-10-18T07:09:28.882Z,1009.74
2017-10-18T07:10:37.576Z,1009.74
2017-10-18T07:11:46.566Z,1009.7
2017-10-18T07:12:55.540Z,1009.71
2017-10-18T07:14:04.209Z,1009.67
2017-10-18T07:15:13.927Z,1009.69
2017-10-18T07:16:22.652Z,1009.71
2017-10-18T07:17:31.307Z,1009.72
2017-10-18T07:18:40.628Z,1009.7
2017-10-18T07:19:49.637Z,1009.73
2017-10-18T07:20:58.952Z,1009.71
2017-10-18T07:22:07.944Z,1009.71
2017-10-18T07:23:17.249Z,1009.69
2017-10-18T07:24:26.329Z,1009.67
2017-10-18T07:25:34.986Z,1009.7
2017-10-18T07:26:43.648Z,1009.71
2017-10-18T07:27:52.654Z,1009.72
2017-10-18T07:29:01.656Z,1009.76
2017-10-18T07:30:10.335Z,1009.74
2017-10-18T07:31:19.333Z,1009.76
2017-10-18T07:32:28.001Z,1009.77
2017-10-18T07:33:37.347Z,1009.74
2017-10-18T07:34:46.335Z,1009.78
2017-10-18T07:35:55.343Z,1009.77
2017-10-18T07:37:04.375Z,1009.76
2017-10-18T07:38:13.362Z,1009.78
2017-10-18T07:39:22.740Z,1009.76
2017-10-18T07:40:32.109Z,1009.77
2017-10-18T07:41:41.459Z,1009.76
2017-10-18T07:42:50.468Z,1009.81
2017-10-18T07:43:59.484Z,1009.77
2017-10-18T07:45:08.495Z,1009.74
2017-10-18T07:46:17.700Z,1009.78
2017-10-18T07:47:26.387Z,1009.76
2017-10-18T07:48:36.050Z,1009.77
2017-10-18T07:49:44.727Z,1009.77
2017-10-18T07:50:53.387Z,1009.76
2017-10-18T07:52:02.088Z,1009.79
2017-10-18T07:53:11.085Z,1009.79
2017-10-18T07:54:20.075Z,1009.76
2017-10-18T07:55:29.076Z,1009.75
2017-10-18T07:56:38.064Z,1009.8
2017-10-18T07:57:46.766Z,1009.76
2017-10-18T07:58:55.472Z,1009.77
2017-10-18T08:00:04.823Z,1009.82
2017-10-18T08:01:14.162Z,1009.8
2017-10-18T08:02:23.493Z,1009.79
2017-10-18T08:03:32.167Z,1009.79
2017-10-18T08:04:41.500Z,1009.78
2017-10-18T08:05:50.507Z,1009.77
2017-10-18T08:06:59.175Z,1009.75
2017-10-18T08:08:08.175Z,1009.75
2017-10-18T08:09:17.522Z,1009.71
2017-10-18T08:10:26.176Z,1009.77
2017-10-18T08:11:35.834Z,1009.76
2017-10-18T08:12:44.869Z,1009.74
2017-10-18T08:13:53.875Z,1009.78
2017-10-18T08:15:03.205Z,1009.76
2017-10-18T08:16:12.904Z,1009.74
2017-10-18T08:17:21.573Z,1009.72
2017-10-18T08:18:30.898Z,1009.72
2017-10-18T08:19:40.210Z,1009.75
2017-10-18T08:20:49.206Z,1009.67
2017-10-18T08:21:58.204Z,1009.71
2017-10-18T08:23:08.180Z,1009.7
2017-10-18T08:24:16.852Z,1009.68
2017-10-18T08:25:26.199Z,1009.68
2017-10-18T08:26:35.216Z,1009.69
2017-10-18T08:27:44.227Z,1009.68
2017-10-18T08:28:53.877Z,1009.67
2017-10-18T08:30:02.900Z,1009.67
2017-10-18T08:31:11.916Z,1009.67
2017-10-18T08:32:21.245Z,1009.62
2017-10-18T08:33:29.919Z,1009.6
2017-10-18T08:34:38.631Z,1009.62
2017-10-18T08:35:48.295Z,1009.62
2017-10-18T08:36:57.303Z,1009.6
2017-10-18T08:38:05.968Z,1009.59
2017-10-18T08:39:14.645Z,1009.61
2017-10-18T08:40:23.653Z,1009.6
2017-10-18T08:41:32.666Z,1009.59
2017-10-18T08:42:41.672Z,1009.58
2017-10-18T08:43:50.678Z,1009.6
2017-10-18T08:45:00.656Z,1009.59
2017-10-18T08:46:09.979Z,1009.65
2017-10-18T08:47:19.297Z,1009.6
2017-10-18T08:48:29.281Z,1009.59
2017-10-18T08:49:37.993Z,1009.64
2017-10-18T08:50:46.978Z,1009.63
2017-10-18T08:51:56.306Z,1009.58
2017-10-18T08:53:05.302Z,1009.6
2017-10-18T08:54:13.961Z,1009.61
2017-10-18T08:55:23.307Z,1009.6
2017-10-18T08:56:31.973Z,1009.6
2017-10-18T08:57:40.969Z,1009.59
2017-10-18T08:58:50.303Z,1009.61
2017-10-18T08:59:59.666Z,1009.58
2017-10-18T09:01:08.679Z,1009.63
2017-10-18T09:02:17.350Z,1009.63
2017-10-18T09:03:26.692Z,1009.62
2017-10-18T09:04:36.009Z,1009.63
2017-10-18T09:05:45.023Z,1009.61
2017-10-18T09:06:54.393Z,1009.63
2017-10-18T09:08:03.398Z,1009.63
2017-10-18T09:09:12.447Z,1009.64
2017-10-18T09:10:22.442Z,1009.61
2017-10-18T09:11:31.781Z,1009.62
2017-10-18T09:12:40.782Z,1009.57
2017-10-18T09:13:49.794Z,1009.54
2017-10-18T09:14:59.103Z,1009.59
2017-10-18T09:16:08.762Z,1009.57
2017-10-18T09:17:18.094Z,1009.53
2017-10-18T09:18:27.738Z,1009.56
2017-10-18T09:19:37.063Z,1009.58
2017-10-18T09:20:46.066Z,1009.55
2017-10-18T09:21:55.405Z,1009.59
2017-10-18T09:23:04.430Z,1009.57
2017-10-18T09:24:13.429Z,1009.53
2017-10-18T09:25:22.533Z,1009.56
2017-10-18T09:26:31.875Z,1009.56
2017-10-18T09:27:41.201Z,1009.53
2017-10-18T09:28:50.535Z,1009.53
2017-10-18T09:30:00.514Z,1009.55
2017-10-18T09:31:10.172Z,1009.52
2017-10-18T09:32:18.858Z,1009.54
2017-10-18T09:33:27.917Z,1009.57
2017-10-18T09:34:36.580Z,1009.55
2017-10-18T09:35:45.944Z,1009.55
2017-10-18T09:36:54.597Z,1009.51
2017-10-18T09:38:36.340Z,1009.49
2017-10-18T09:39:45.333Z,1009.47
2017-10-18T09:40:54.346Z,1009.48
2017-10-18T09:42:03.012Z,1009.48
2017-10-18T09:43:12.001Z,1009.51
2017-10-18T09:44:20.992Z,1009.48
2017-10-18T09:45:30.299Z,1009.48
2017-10-18T09:46:39.292Z,1009.48
2017-10-18T09:47:48.628Z,1009.47
2017-10-18T09:48:57.639Z,1009.45
2017-10-18T09:50:06.306Z,1009.46
2017-10-18T09:51:15.960Z,1009.44
2017-10-18T09:52:25.288Z,1009.45
2017-10-18T09:53:33.950Z,1009.43
2017-10-18T09:54:42.607Z,1009.39
2017-10-18T09:55:51.261Z,1009.4
2017-10-18T09:57:00.582Z,1009.36
2017-10-18T09:58:09.566Z,1009.37
2017-10-18T09:59:18.651Z,1009.32
2017-10-18T10:00:27.330Z,1009.34
2017-10-18T10:01:36.316Z,1009.37
2017-10-18T10:02:45.320Z,1009.39
2017-10-18T10:03:54.315Z,1009.41
2017-10-18T10:05:03.658Z,1009.42
2017-10-18T10:06:13.327Z,1009.37
2017-10-18T10:07:22.637Z,1009.47
2017-10-18T10:08:32.635Z,1009.48
2017-10-18T10:09:41.306Z,1009.46
2017-10-18T10:10:49.969Z,1009.52
2017-10-18T10:11:58.973Z,1009.49
2017-10-18T10:13:08.018Z,1009.46
2017-10-18T10:14:16.722Z,1009.47
2017-10-18T10:15:25.713Z,1009.44
2017-10-18T10:16:34.720Z,1009.47
2017-10-18T10:17:44.035Z,1009.41
2017-10-18T10:18:53.694Z,1009.44
2017-10-18T10:20:02.357Z,1009.41
2017-10-18T10:21:11.352Z,1009.37
2017-10-18T10:22:20.341Z,1009.38
2017-10-18T10:23:29.001Z,1009.42
2017-10-18T10:24:38.312Z,1009.42
2017-10-18T10:25:47.333Z,1009.43
2017-10-18T10:26:55.999Z,1009.46
2017-10-18T10:28:05.706Z,1009.48
2017-10-18T10:29:14.706Z,1009.46
2017-10-18T10:30:24.024Z,1009.47
2017-10-18T10:31:33.337Z,1009.43
2017-10-18T10:32:42.320Z,1009.5
2017-10-18T10:33:51.666Z,1009.48
2017-10-18T10:35:00.680Z,1009.47
2017-10-18T10:36:10.001Z,1009.45
2017-10-18T10:37:19.332Z,1009.45
2017-10-18T10:38:28.333Z,1009.49
2017-10-18T10:39:37.309Z,1009.45
2017-10-18T10:40:46.619Z,1009.49
2017-10-18T10:41:55.667Z,1009.46
2017-10-18T10:43:04.648Z,1009.42
2017-10-18T10:44:13.362Z,1009.43
2017-10-18T10:45:22.356Z,1009.48
2017-10-18T10:46:31.750Z,1009.43
2017-10-18T10:47:40.792Z,1009.43
2017-10-18T10:48:49.976Z,1009.4
2017-10-18T10:49:58.960Z,1009.41
2017-10-18T10:51:08.295Z,1009.41
2017-10-18T10:52:17.302Z,1009.44
2017-10-18T10:53:26.633Z,1009.44
2017-10-18T10:54:35.696Z,1009.43
2017-10-18T10:55:44.709Z,1009.43
2017-10-18T10:56:53.402Z,1009.44
2017-10-18T10:58:02.079Z,1009.41
2017-10-18T10:59:11.068Z,1009.39
2017-10-18T11:00:20.390Z,1009.38
2017-10-18T11:01:29.084Z,1009.3
2017-10-18T11:02:38.453Z,1009.32
2017-10-18T11:03:47.509Z,1009.31
2017-10-18T11:04:56.511Z,1009.36
2017-10-18T11:06:05.525Z,1009.34
2017-10-18T11:07:14.523Z,1009.36
2017-10-18T11:08:23.593Z,1009.34
2017-10-18T11:09:32.669Z,1009.29
2017-10-18T11:10:41.345Z,1009.34
2017-10-18T11:11:50.678Z,1009.32
2017-10-18T11:12:59.696Z,1009.25
2017-10-18T11:14:09.058Z,1009.22
2017-10-18T11:15:18.062Z,1009.25
2017-10-18T11:16:27.437Z,1009.24
2017-10-18T11:17:36.114Z,1009.22
2017-10-18T11:18:45.096Z,1009.21
2017-10-18T11:19:54.097Z,1009.22
2017-10-18T11:21:03.381Z,1009.22
2017-10-18T11:22:12.406Z,1009.22
2017-10-18T11:23:21.390Z,1009.19
2017-10-18T11:24:30.049Z,1009.18
2017-10-18T11:25:38.729Z,1009.15
2017-10-18T11:26:47.737Z,1009.17
2017-10-18T11:27:56.719Z,1009.15
2017-10-18T11:29:05.714Z,1009.14
2017-10-18T11:30:15.379Z,1009.14
2017-10-18T11:31:24.382Z,1009.11
2017-10-18T11:32:33.746Z,1009.07
2017-10-18T11:33:42.408Z,1009.07
2017-10-18T11:34:51.390Z,1009.02
2017-10-18T11:36:00.741Z,1008.99
2017-10-18T11:37:10.481Z,1009.01
2017-10-18T11:38:19.802Z,1008.96
2017-10-18T11:39:28.642Z,1008.96
2017-10-18T11:40:38.087Z,1008.96
2017-10-18T11:41:47.411Z,1008.96
2017-10-18T11:42:56.081Z,1008.94
2017-10-18T11:44:05.081Z,1008.93
2017-10-18T11:45:14.069Z,1008.93
2017-10-18T11:46:23.066Z,1008.92
2017-10-18T11:47:32.404Z,1008.93
2017-10-18T11:48:41.742Z,1008.9
2017-10-18T11:49:50.434Z,1008.89
2017-10-18T11:50:59.763Z,1008.89
2017-10-18T11:52:08.747Z,1008.87
2017-10-18T11:53:17.411Z,1008.84
2017-10-18T11:54:26.414Z,1008.82
2017-10-18T11:55:35.734Z,1008.83
2017-10-18T11:56:44.727Z,1008.81
2017-10-18T11:57:54.051Z,1008.77
2017-10-18T11:59:03.035Z,1008.79
2017-10-18T12:00:11.692Z,1008.78
2017-10-18T12:01:21.387Z,1008.77
2017-10-18T12:02:30.788Z,1008.77
2017-10-18T12:03:39.788Z,1008.75
2017-10-18T12:04:49.460Z,1008.7
2017-10-18T12:05:58.487Z,1008.69
2017-10-18T12:07:07.171Z,1008.64
2017-10-18T12:08:16.147Z,1008.64
2017-10-18T12:09:24.980Z,1008.65
2017-10-18T12:10:33.957Z,1008.65
2017-10-18T12:11:42.951Z,1008.6
2017-10-18T12:12:51.642Z,1008.6
2017-10-18T12:14:00.635Z,1008.6
2017-10-18T12:15:09.329Z,1008.57
2017-10-18T12:16:18.669Z,1008.58
2017-10-18T12:17:28.015Z,1008.57
2017-10-18T12:18:37.351Z,1008.6
2017-10-18T12:19:46.010Z,1008.58
2017-10-18T12:20:54.682Z,1008.6
2017-10-18T12:22:03.680Z,1008.53
2017-10-18T12:23:12.674Z,1008.6
2017-10-18T12:24:21.389Z,1008.56
2017-10-18T12:25:31.041Z,1008.54
2017-10-18T12:26:40.366Z,1008.56
2017-10-18T12:27:49.364Z,1008.55
2017-10-18T12:28:58.380Z,1008.57
2017-10-18T12:30:08.046Z,1008.53
2017-10-18T12:31:17.047Z,1008.53
2017-10-18T12:32:26.039Z,1008.56
2017-10-18T12:33:34.735Z,1008.51
2017-10-18T12:34:43.720Z,1008.52
2017-10-18T12:35:52.743Z,1008.53
2017-10-18T12:37:01.839Z,1008.49
2017-10-18T12:38:11.491Z,1008.44
2017-10-18T12:39:20.828Z,1008.46
2017-10-18T12:40:29.881Z,1008.46
2017-10-18T12:41:38.860Z,1008.45
2017-10-18T12:42:47.549Z,1008.48
2017-10-18T12:43:56.870Z,1008.49
2017-10-18T12:45:05.857Z,1008.47
2017-10-18T12:46:14.846Z,1008.45
2017-10-18T12:47:24.176Z,1008.44
2017-10-18T12:48:33.184Z,1008.45
2017-10-18T12:49:42.510Z,1008.44
2017-10-18T12:50:51.854Z,1008.42
2017-10-18T12:52:01.258Z,1008.41
2017-10-18T12:53:10.251Z,1008.39
2017-10-18T12:54:19.279Z,1008.39
2017-10-18T12:55:27.975Z,1008.37
2017-10-18T12:56:37.286Z,1008.38
2017-10-18T12:57:46.271Z,1008.36
2017-10-18T12:58:55.964Z,1008.33
2017-10-18T13:00:04.644Z,1008.32
2017-10-18T13:01:13.967Z,1008.33
2017-10-18T13:02:22.968Z,1008.29
2017-10-18T13:03:31.975Z,1008.34
2017-10-18T13:04:40.685Z,1008.32
2017-10-18T13:05:50.432Z,1008.34
2017-10-18T13:06:59.197Z,1008.3
2017-10-18T13:08:08.202Z,1008.3
2017-10-18T13:09:17.202Z,1008.28
2017-10-18T13:10:26.168Z,1008.23
2017-10-18T13:11:35.820Z,1008.24
2017-10-18T13:12:44.819Z,1008.28
2017-10-18T13:13:54.163Z,1008.27
2017-10-18T13:15:02.888Z,1008.28
2017-10-18T13:16:11.872Z,1008.25
2017-10-18T13:17:20.868Z,1008.27
2017-10-18T13:18:30.520Z,1008.26
2017-10-18T13:19:39.539Z,1008.27
2017-10-18T13:20:48.864Z,1008.25
2017-10-18T13:21:57.861Z,1008.26
2017-10-18T13:23:06.531Z,1008.24
2017-10-18T13:24:15.540Z,1008.24
2017-10-18T13:25:24.888Z,1008.22
2017-10-18T13:26:34.548Z,1008.26
2017-10-18T13:27:43.537Z,1008.23
2017-10-18T13:28:52.527Z,1008.24
2017-10-18T13:30:01.577Z,1008.26
2017-10-18T13:31:10.928Z,1008.25
2017-10-18T13:32:20.601Z,1008.23
2017-10-18T13:33:29.316Z,1008.2
2017-10-18T13:34:38.350Z,1008.2
2017-10-18T13:35:48.346Z,1008.19
2017-10-18T13:36:57.718Z,1008.21
2017-10-18T13:38:07.036Z,1008.18
2017-10-18T13:39:16.680Z,1008.15
2017-10-18T13:40:25.991Z,1008.2
2017-10-18T13:41:34.993Z,1008.12
2017-10-18T13:42:44.014Z,1008.12
2017-10-18T13:43:53.408Z,1008.12
2017-10-18T13:45:02.412Z,1008.08
2017-10-18T13:46:12.055Z,1008.09
2017-10-18T13:47:20.720Z,1008.06
2017-10-18T13:48:29.381Z,1008.1
2017-10-18T13:49:38.745Z,1008.11
2017-10-18T13:50:48.390Z,1008.1
2017-10-18T13:51:57.703Z,1008.04
2017-10-18T13:53:06.711Z,1008.07
2017-10-18T13:54:15.392Z,1008.09
2017-10-18T13:55:24.783Z,1008.09
2017-10-18T13:56:34.114Z,1008.05
2017-10-18T13:57:43.473Z,1008.09
2017-10-18T13:58:52.821Z,1008.05
2017-10-18T14:00:01.842Z,1008.09
2017-10-18T14:01:10.858Z,1008.03
2017-10-18T14:02:19.851Z,1008.03
2017-10-18T14:03:29.178Z,1008.07
2017-10-18T14:04:38.197Z,1008.03
2017-10-18T14:05:47.514Z,1008.09
2017-10-18T14:06:56.511Z,1008.03
2017-10-18T14:08:05.511Z,1008.03
2017-10-18T14:09:14.185Z,1008.02
2017-10-18T14:10:23.518Z,1008
2017-10-18T14:11:32.517Z,1007.99
2017-10-18T14:12:41.506Z,1008
2017-10-18T14:13:50.492Z,1007.98
2017-10-18T14:14:59.850Z,1008
2017-10-18T14:16:09.826Z,1007.94
2017-10-18T14:17:19.464Z,1007.95
2017-10-18T14:18:28.122Z,1007.98
2017-10-18T14:19:37.782Z,1007.92
2017-10-18T14:20:47.756Z,1007.96
2017-10-18T14:21:57.104Z,1007.98
2017-10-18T14:23:06.473Z,1007.96
2017-10-18T14:24:15.821Z,1008
2017-10-18T14:25:24.485Z,1007.96
2017-10-18T14:26:33.812Z,1007.97
2017-10-18T14:27:42.872Z,1007.97
2017-10-18T14:28:52.203Z,1007.96
2017-10-18T14:30:01.195Z,1007.98
2017-10-18T14:31:10.193Z,1007.95
2017-10-18T14:32:19.190Z,1007.95
2017-10-18T14:33:28.172Z,1007.96
2017-10-18T14:34:37.170Z,1008
2017-10-18T14:35:46.478Z,1007.98
2017-10-18T14:36:55.145Z,1007.98
2017-10-18T14:38:04.205Z,1007.99
2017-10-18T14:39:12.857Z,1007.99
2017-10-18T14:40:22.488Z,1007.98
2017-10-18T14:41:31.862Z,1007.99
2017-10-18T14:42:41.524Z,1007.98
2017-10-18T14:43:50.863Z,1007.99
2017-10-18T14:44:59.904Z,1007.99
2017-10-18T14:46:09.228Z,1007.98
2017-10-18T14:47:18.582Z,1007.99
2017-10-18T14:48:28.068Z,1008.01
2017-10-18T14:49:36.731Z,1008.01
2017-10-18T14:50:45.737Z,1008.03
2017-10-18T14:51:55.398Z,1008.03
2017-10-18T14:53:04.092Z,1008.03
2017-10-18T14:54:13.095Z,1008.04
2017-10-18T14:55:22.093Z,1008.09
2017-10-18T14:56:31.084Z,1008.08
2017-10-18T14:57:40.061Z,1008.06
2017-10-18T14:58:50.041Z,1008.07
2017-10-18T14:59:59.398Z,1008.06
2017-10-18T15:01:08.396Z,1008.05
2017-10-18T15:02:17.386Z,1008.06
2017-10-18T15:03:26.703Z,1008.06
2017-10-18T15:04:35.674Z,1008.03
2017-10-18T15:05:44.663Z,1008.03
2017-10-18T15:06:54.307Z,1008.04
2017-10-18T15:08:03.022Z,1007.99
2017-10-18T15:09:12.494Z,1007.97
2017-10-18T15:10:21.539Z,1007.99
2017-10-18T15:11:30.258Z,1007.96
2017-10-18T15:12:38.933Z,1007.94
2017-10-18T15:13:48.607Z,1007.97
2017-10-18T15:14:57.962Z,1007.98
2017-10-18T15:16:07.139Z,1008.01
2017-10-18T15:17:16.052Z,1007.96
2017-10-18T15:18:24.819Z,1007.97
2017-10-18T15:19:33.785Z,1007.97
2017-10-18T15:20:42.828Z,1008
2017-10-18T15:21:51.987Z,1007.97
2017-10-18T15:23:01.374Z,1007.95
2017-10-18T15:24:10.403Z,1007.99
2017-10-18T15:25:19.719Z,1007.97
2017-10-18T15:26:29.548Z,1007.93
2017-10-18T15:27:38.936Z,1007.96
2017-10-18T15:28:47.913Z,1007.96
2017-10-18T15:29:56.949Z,1007.98
2017-10-18T15:31:05.937Z,1007.97
2017-10-18T15:32:14.633Z,1007.98
2017-10-18T15:33:23.958Z,1007.97
2017-10-18T15:34:33.306Z,1007.97
2017-10-18T15:35:42.660Z,1008.01
2017-10-18T15:36:52.367Z,1007.98
2017-10-18T15:38:02.130Z,1007.97
2017-10-18T15:39:11.567Z,1007.96
2017-10-18T15:40:20.257Z,1007.94
2017-10-18T15:41:29.611Z,1007.98
2017-10-18T15:42:38.851Z,1007.98
2017-10-18T15:43:48.047Z,1007.92
2017-10-18T15:44:57.490Z,1007.95
2017-10-18T15:46:07.135Z,1007.91
2017-10-18T15:47:16.548Z,1007.92
2017-10-18T15:48:26.121Z,1007.96
2017-10-18T15:49:34.901Z,1007.96
2017-10-18T15:50:44.266Z,1007.93
2017-10-18T15:51:52.919Z,1007.94
2017-10-18T15:53:01.952Z,1007.92
2017-10-18T15:54:10.966Z,1007.96
2017-10-18T15:55:20.290Z,1007.96
2017-10-18T15:56:28.993Z,1007.97
2017-10-18T15:57:37.697Z,1007.97
2017-10-18T15:58:47.388Z,1007.96
2017-10-18T15:59:56.741Z,1007.99
2017-10-18T16:01:05.809Z,1007.99
2017-10-18T16:02:15.153Z,1007.96
2017-10-18T16:03:24.566Z,1007.97
2017-10-18T16:04:33.575Z,1007.94
2017-10-18T16:05:43.218Z,1007.93
2017-10-18T16:06:52.533Z,1007.94
2017-10-18T16:08:01.545Z,1007.93
2017-10-18T16:09:10.550Z,1007.95
2017-10-18T16:10:19.213Z,1008
2017-10-18T16:11:28.867Z,1008.02
2017-10-18T16:12:38.214Z,1008.02
2017-10-18T16:13:47.289Z,1008.03
2017-10-18T16:14:56.347Z,1008.03
2017-10-18T16:16:05.345Z,1008.01
2017-10-18T16:17:14.412Z,1007.99
2017-10-18T16:18:23.451Z,1008.01
2017-10-18T16:19:32.440Z,1007.99
2017-10-18T16:20:41.763Z,1008.01
2017-10-18T16:21:51.086Z,1007.99
2017-10-18T16:23:00.072Z,1008
2017-10-18T16:24:09.062Z,1008.01
2017-10-18T16:25:17.815Z,1008.01
2017-10-18T16:26:26.775Z,1008.01
2017-10-18T16:27:35.771Z,1008.01
2017-10-18T16:28:44.756Z,1008.07
2017-10-18T16:29:54.390Z,1008.04
2017-10-18T16:31:03.077Z,1008.04
2017-10-18T16:32:12.060Z,1008.09
2017-10-18T16:33:21.452Z,1008.03
2017-10-18T16:34:30.100Z,1008.08
2017-10-18T16:35:39.432Z,1008.06
2017-10-18T16:36:48.436Z,1008.08
2017-10-18T16:37:57.738Z,1008.07
2017-10-18T16:39:06.433Z,1008.07
2017-10-18T16:40:15.422Z,1008.09
2017-10-18T16:41:24.451Z,1008.11
2017-10-18T16:42:33.799Z,1008.07
2017-10-18T16:43:43.124Z,1008.07
2017-10-18T16:44:52.781Z,1008.09
2017-10-18T16:46:02.116Z,1008.09
2017-10-18T16:47:10.771Z,1008.1
2017-10-18T16:48:19.763Z,1008.09
2017-10-18T16:49:29.129Z,1008.1
2017-10-18T16:50:38.159Z,1008.1
2017-10-18T16:51:47.178Z,1008.06
2017-10-18T16:52:55.860Z,1008.08
2017-10-18T16:54:05.833Z,1008.09
2017-10-18T16:55:14.531Z,1008.07
2017-10-18T16:56:23.205Z,1008.08
2017-10-18T16:57:31.878Z,1008.09
2017-10-18T16:58:40.573Z,1008.07
2017-10-18T16:59:49.585Z,1008.03
2017-10-18T17:00:58.600Z,1008.05
2017-10-18T17:02:07.578Z,1008.02
2017-10-18T17:03:17.247Z,1008.05
2017-10-18T17:04:26.568Z,1008.07
2017-10-18T17:05:36.566Z,1008.07
2017-10-18T17:06:45.566Z,1008.05
2017-10-18T17:07:54.546Z,1008.07
2017-10-18T17:09:03.521Z,1008.09
2017-10-18T17:10:12.506Z,1008.08
2017-10-18T17:11:21.539Z,1008.08
2017-10-18T17:12:30.880Z,1008.05
2017-10-18T17:13:40.526Z,1008.04
2017-10-18T17:14:49.188Z,1008.08
2017-10-18T17:15:58.506Z,1008.09
2017-10-18T17:17:07.163Z,1008.03
2017-10-18T17:18:16.483Z,1008.04
2017-10-18T17:19:25.540Z,1008.03
2017-10-18T17:20:34.853Z,1008.06
2017-10-18T17:21:44.157Z,1008.02
2017-10-18T17:22:53.172Z,1008.04
2017-10-18T17:24:02.163Z,1008.02
2017-10-18T17:25:10.846Z,1008.02
2017-10-18T17:26:19.826Z,1008.02
2017-10-18T17:27:28.824Z,1008.06
2017-10-18T17:28:37.819Z,1008.06
2017-10-18T17:29:46.794Z,1008.04
2017-10-18T17:30:55.479Z,1008.05
2017-10-18T17:32:04.463Z,1008.05
2017-10-18T17:33:13.455Z,1008.09
2017-10-18T17:34:22.431Z,1008.08
2017-10-18T17:35:31.438Z,1008.07
2017-10-18T17:36:41.427Z,1008.1
2017-10-18T17:37:50.406Z,1008.1
2017-10-18T17:38:59.406Z,1008.13
2017-10-18T17:40:09.060Z,1008.13
2017-10-18T17:41:17.754Z,1008.15
2017-10-18T17:42:26.451Z,1008.14
2017-10-18T17:43:35.102Z,1008.11
2017-10-18T17:44:43.739Z,1008.11
2017-10-18T17:45:52.715Z,1008.12
2017-10-18T17:47:01.710Z,1008.12
2017-10-18T17:48:10.724Z,1008.15
2017-10-18T17:49:19.390Z,1008.15
2017-10-18T17:50:28.383Z,1008.17
2017-10-18T17:51:37.729Z,1008.15
2017-10-18T17:52:46.762Z,1008.14
2017-10-18T17:53:55.425Z,1008.17
2017-10-18T17:55:05.089Z,1008.15
2017-10-18T17:56:14.402Z,1008.16
2017-10-18T17:57:24.356Z,1008.12
2017-10-18T17:58:33.687Z,1008.14
2017-10-18T17:59:42.377Z,1008.16
2017-10-18T18:00:51.047Z,1008.15
2017-10-18T18:02:00.339Z,1008.16
2017-10-18T18:03:09.975Z,1008.15
2017-10-18T18:04:19.004Z,1008.16
2017-10-18T18:05:27.662Z,1008.15
2017-10-18T18:06:36.971Z,1008.19
2017-10-18T18:07:45.977Z,1008.19
2017-10-18T18:08:54.978Z,1008.19
2017-10-18T18:10:04.267Z,1008.19
2017-10-18T18:11:13.275Z,1008.19
2017-10-18T18:12:22.237Z,1008.21
2017-10-18T18:13:30.931Z,1008.21
2017-10-18T18:14:39.912Z,1008.22
2017-10-18T18:15:48.582Z,1008.21
2017-10-18T18:16:57.910Z,1008.23
2017-10-18T18:18:07.254Z,1008.23
2017-10-18T18:19:16.570Z,1008.22
2017-10-18T18:20:25.567Z,1008.28
2017-10-18T18:21:34.550Z,1008.27
2017-10-18T18:22:43.567Z,1008.32
2017-10-18T18:23:52.218Z,1008.29
2017-10-18T18:25:01.540Z,1008.28
2017-10-18T18:26:10.523Z,1008.34
2017-10-18T18:27:19.834Z,1008.33
2017-10-18T18:28:28.844Z,1008.33
2017-10-18T18:29:37.861Z,1008.37
2017-10-18T18:30:46.565Z,1008.33
2017-10-18T18:31:55.595Z,1008.34
2017-10-18T18:33:04.912Z,1008.37
2017-10-18T18:34:13.569Z,1008.35
2017-10-18T18:35:22.934Z,1008.39
2017-10-18T18:36:32.350Z,1008.38
2017-10-18T18:37:41.338Z,1008.38
2017-10-18T18:38:50.001Z,1008.4
2017-10-18T18:39:58.994Z,1008.41
2017-10-18T18:41:08.649Z,1008.39
2017-10-18T18:42:17.636Z,1008.39
2017-10-18T18:43:26.982Z,1008.43
2017-10-18T18:44:36.287Z,1008.41
2017-10-18T18:45:44.984Z,1008.42
2017-10-18T18:46:53.662Z,1008.45
2017-10-18T18:48:02.673Z,1008.44
2017-10-18T18:49:11.995Z,1008.46
2017-10-18T18:50:20.970Z,1008.44
2017-10-18T18:51:30.000Z,1008.48
2017-10-18T18:52:39.335Z,1008.42
2017-10-18T18:53:48.331Z,1008.44
2017-10-18T18:54:57.666Z,1008.48
2017-10-18T18:56:06.682Z,1008.46
2017-10-18T18:57:15.508Z,1008.47
2017-10-18T18:58:24.503Z,1008.47
2017-10-18T18:59:33.502Z,1008.42
2017-10-18T19:00:42.490Z,1008.45
2017-10-18T19:01:51.506Z,1008.45
2017-10-18T19:03:00.527Z,1008.48
2017-10-18T19:04:09.244Z,1008.47
2017-10-18T19:05:17.958Z,1008.49
2017-10-18T19:06:26.638Z,1008.52
2017-10-18T19:07:35.333Z,1008.45
2017-10-18T19:08:44.038Z,1008.49
2017-10-18T19:09:52.707Z,1008.5
2017-10-18T19:11:01.401Z,1008.47
2017-10-18T19:12:10.444Z,1008.5
2017-10-18T19:13:20.108Z,1008.5
2017-10-18T19:14:29.765Z,1008.47
2017-10-18T19:15:38.434Z,1008.46
2017-10-18T19:16:47.752Z,1008.46
2017-10-18T19:17:57.108Z,1008.49
2017-10-18T19:19:06.439Z,1008.51
2017-10-18T19:20:15.102Z,1008.49
2017-10-18T19:21:24.459Z,1008.46
2017-10-18T19:22:33.461Z,1008.49
2017-10-18T19:23:42.143Z,1008.49
2017-10-18T19:24:51.474Z,1008.51
2017-10-18T19:26:01.043Z,1008.48
2017-10-18T19:27:10.113Z,1008.47
2017-10-18T19:28:19.115Z,1008.46
2017-10-18T19:29:28.229Z,1008.48
2017-10-18T19:30:37.905Z,1008.48
2017-10-18T19:31:46.587Z,1008.47
2017-10-18T19:32:55.576Z,1008.5
2017-10-18T19:34:04.912Z,1008.51
2017-10-18T19:35:13.691Z,1008.48
2017-10-18T19:36:22.687Z,1008.52
2017-10-18T19:37:31.792Z,1008.52
2017-10-18T19:38:40.783Z,1008.53
2017-10-18T19:39:50.139Z,1008.53
2017-10-18T19:40:59.124Z,1008.5
2017-10-18T19:42:08.108Z,1008.53
2017-10-18T19:43:17.440Z,1008.52
2017-10-18T19:44:27.087Z,1008.52
2017-10-18T19:45:35.771Z,1008.53
2017-10-18T19:46:44.797Z,1008.49
2017-10-18T19:47:53.810Z,1008.51
2017-10-18T19:49:03.137Z,1008.53
2017-10-18T19:50:11.812Z,1008.53
2017-10-18T19:51:21.110Z,1008.51
2017-10-18T19:52:30.102Z,1008.53
2017-10-18T19:53:39.432Z,1008.52
2017-10-18T19:54:48.858Z,1008.5
2017-10-18T19:55:57.843Z,1008.55
2017-10-18T19:57:06.515Z,1008.52
2017-10-18T19:58:15.495Z,1008.53
2017-10-18T19:59:24.498Z,1008.55
2017-10-18T20:00:33.504Z,1008.57
2017-10-18T20:01:42.520Z,1008.59
2017-10-18T20:02:51.523Z,1008.58
2017-10-18T20:04:00.197Z,1008.58
2017-10-18T20:05:10.527Z,1008.58
2017-10-18T20:06:19.209Z,1008.59
2017-10-18T20:07:28.546Z,1008.59
2017-10-18T20:08:38.207Z,1008.61
2017-10-18T20:09:47.205Z,1008.59
2017-10-18T20:10:56.181Z,1008.58
2017-10-18T20:12:05.480Z,1008.65
2017-10-18T20:13:14.787Z,1008.62
2017-10-18T20:14:24.797Z,1008.62
2017-10-18T20:15:33.787Z,1008.68
2017-10-18T20:16:42.434Z,1008.67
2017-10-18T20:17:51.768Z,1008.65
2017-10-18T20:19:00.754Z,1008.6
2017-10-18T20:20:10.127Z,1008.65
2017-10-18T20:21:18.792Z,1008.65
2017-10-18T20:22:27.779Z,1008.66
2017-10-18T20:23:36.572Z,1008.68
2017-10-18T20:24:45.566Z,1008.65
2017-10-18T20:25:54.580Z,1008.65
2017-10-18T20:27:03.605Z,1008.68
2017-10-18T20:28:12.316Z,1008.64
2017-10-18T20:29:21.271Z,1008.59
2017-10-18T20:30:29.962Z,1008.66